RYR50XZ LFMU-EGGW
Flight info
| Callsign | RYR50XZ |
|---|---|
| Flight time | 1h 39m |
| Altitude | 36000 |
| Route | FJR DCT NG DCT MOLEN DCT MTL DCT ETREK DCT MADOT DCT MOPEM DCT CACHI DCT AVLON DCT OKRIX DCT BRY DCT CLM DCT KOPOR DCT PIREG DCT SOSUN DCT SUBIP UM733 UNDUG |
| Aircraft | B738/M-SDE2E3FGHIRWXY/LB1 |
Departure
| Time | 2026-04-22 11:50 |
|---|---|
| Airport | Béziers Vias airport (LFMU) |
Arrival
| Time | 2026-04-22 13:29 |
|---|---|
| Airport | London Luton Airport (EGGW) |
| Time | Latitude | Longitude | Altitude | Speed | Heading |
|---|---|---|---|---|---|
| 2026-04-22 11:39 | 43.32153 | 3.35268 | 58 ft | 0 kts | 184° |
| 2026-04-22 11:45 | 43.32147 | 3.35269 | 53 ft | 3 kts | 170° |
| 2026-04-22 11:45 | 43.32147 | 3.35299 | 54 ft | 5 kts | 53° |
| 2026-04-22 11:46 | 43.32182 | 3.35320 | 52 ft | 6 kts | 12° |
| 2026-04-22 11:46 | 43.32231 | 3.35327 | 58 ft | 8 kts | 4° |
| 2026-04-22 11:46 | 43.32292 | 3.35333 | 58 ft | 9 kts | 4° |
| 2026-04-22 11:46 | 43.32338 | 3.35319 | 49 ft | 5 kts | 307° |
| 2026-04-22 11:47 | 43.32348 | 3.35272 | 55 ft | 5 kts | 276° |
| 2026-04-22 11:47 | 43.32351 | 3.35218 | 56 ft | 6 kts | 275° |
| 2026-04-22 11:47 | 43.32356 | 3.35144 | 55 ft | 10 kts | 274° |
| 2026-04-22 11:47 | 43.32362 | 3.35029 | 56 ft | 14 kts | 274° |
| 2026-04-22 11:48 | 43.32370 | 3.34881 | 56 ft | 17 kts | 274° |
| 2026-04-22 11:48 | 43.32381 | 3.34696 | 58 ft | 22 kts | 274° |
| 2026-04-22 11:48 | 43.32393 | 3.34473 | 56 ft | 25 kts | 274° |
| 2026-04-22 11:48 | 43.32402 | 3.34290 | 61 ft | 13 kts | 257° |
| 2026-04-22 11:49 | 43.32389 | 3.34212 | 58 ft | 2 kts | 334° |
| 2026-04-22 11:49 | 43.32402 | 3.34226 | 55 ft | 3 kts | 61° |
| 2026-04-22 11:49 | 43.32403 | 3.34285 | 61 ft | 12 kts | 94° |
| 2026-04-22 11:49 | 43.32379 | 3.34721 | 58 ft | 82 kts | 95° |
| 2026-04-22 11:50 | 43.32319 | 3.35815 | 54 ft | 145 kts | 94° |
| 2026-04-22 11:50 | 43.32237 | 3.37327 | 519 ft | 158 kts | 94° |
| 2026-04-22 11:50 | 43.32161 | 3.38762 | 1424 ft | 153 kts | 88° |
| 2026-04-22 11:50 | 43.32605 | 3.40173 | 1809 ft | 184 kts | 51° |
| 2026-04-22 11:51 | 43.33508 | 3.41569 | 2091 ft | 207 kts | 53° |
| 2026-04-22 11:51 | 43.34481 | 3.43164 | 2283 ft | 229 kts | 53° |
| 2026-04-22 11:51 | 43.35553 | 3.44932 | 2590 ft | 250 kts | 53° |
| 2026-04-22 11:51 | 43.36670 | 3.46778 | 3400 ft | 251 kts | 53° |
| 2026-04-22 11:52 | 43.37791 | 3.48644 | 4103 ft | 256 kts | 53° |
| 2026-04-22 11:52 | 43.38933 | 3.50558 | 4776 ft | 262 kts | 53° |
| 2026-04-22 11:52 | 43.40095 | 3.52515 | 5421 ft | 268 kts | 51° |
| 2026-04-22 11:52 | 43.41292 | 3.54538 | 5996 ft | 277 kts | 49° |
| 2026-04-22 11:53 | 43.42509 | 3.56596 | 6597 ft | 282 kts | 48° |
| 2026-04-22 11:53 | 43.43746 | 3.58697 | 7317 ft | 284 kts | 49° |
| 2026-04-22 11:53 | 43.44831 | 3.61014 | 7943 ft | 292 kts | 59° |
| 2026-04-22 11:53 | 43.45742 | 3.63530 | 8600 ft | 296 kts | 61° |
| 2026-04-22 11:54 | 43.46632 | 3.66113 | 9221 ft | 301 kts | 60° |
| 2026-04-22 11:54 | 43.47537 | 3.68738 | 9875 ft | 306 kts | 60° |
| 2026-04-22 11:54 | 43.48468 | 3.71399 | 10392 ft | 314 kts | 60° |
| 2026-04-22 11:54 | 43.49463 | 3.74202 | 10541 ft | 336 kts | 60° |
| 2026-04-22 11:55 | 43.50527 | 3.77176 | 10696 ft | 357 kts | 60° |
| 2026-04-22 11:55 | 43.51650 | 3.80310 | 10969 ft | 371 kts | 60° |
| 2026-04-22 11:55 | 43.52797 | 3.83518 | 11528 ft | 375 kts | 60° |
| 2026-04-22 11:55 | 43.53955 | 3.86756 | 12153 ft | 379 kts | 60° |
| 2026-04-22 11:56 | 43.55131 | 3.90035 | 12748 ft | 383 kts | 60° |
| 2026-04-22 11:56 | 43.56317 | 3.93347 | 13380 ft | 387 kts | 60° |
| 2026-04-22 11:56 | 43.57522 | 3.96695 | 13999 ft | 392 kts | 58° |
| 2026-04-22 11:56 | 43.59051 | 3.99772 | 14577 ft | 388 kts | 45° |
| 2026-04-22 11:57 | 43.60865 | 4.02529 | 15255 ft | 388 kts | 43° |
| 2026-04-22 11:57 | 43.62716 | 4.05261 | 15879 ft | 391 kts | 43° |
| 2026-04-22 11:57 | 43.64580 | 4.08024 | 16480 ft | 395 kts | 43° |
| 2026-04-22 11:57 | 43.66446 | 4.10826 | 17092 ft | 398 kts | 44° |
| 2026-04-22 11:58 | 43.68315 | 4.13671 | 17702 ft | 401 kts | 44° |
| 2026-04-22 11:58 | 43.70189 | 4.16546 | 18301 ft | 404 kts | 44° |
| 2026-04-22 11:58 | 43.72071 | 4.19450 | 18827 ft | 408 kts | 45° |
| 2026-04-22 11:58 | 43.73971 | 4.22389 | 19320 ft | 411 kts | 44° |
| 2026-04-22 11:59 | 43.75881 | 4.25348 | 19830 ft | 414 kts | 44° |
| 2026-04-22 11:59 | 43.77804 | 4.28330 | 20362 ft | 416 kts | 45° |
| 2026-04-22 11:59 | 43.79738 | 4.31329 | 20871 ft | 419 kts | 45° |
| 2026-04-22 11:59 | 43.81686 | 4.34353 | 21350 ft | 423 kts | 45° |
| 2026-04-22 12:00 | 43.83663 | 4.37384 | 21819 ft | 424 kts | 42° |
| 2026-04-22 12:00 | 43.85897 | 4.40037 | 22276 ft | 423 kts | 31° |
| 2026-04-22 12:00 | 43.88409 | 4.42138 | 22741 ft | 421 kts | 22° |
| 2026-04-22 12:00 | 43.91116 | 4.43679 | 23205 ft | 421 kts | 17° |
| 2026-04-22 12:01 | 43.93868 | 4.45104 | 23639 ft | 424 kts | 17° |
| 2026-04-22 12:01 | 43.96644 | 4.46541 | 24033 ft | 427 kts | 17° |
| 2026-04-22 12:01 | 43.99427 | 4.48011 | 24439 ft | 429 kts | 18° |
| 2026-04-22 12:01 | 44.02217 | 4.49512 | 24829 ft | 431 kts | 18° |
| 2026-04-22 12:02 | 44.05019 | 4.51031 | 25185 ft | 434 kts | 18° |
| 2026-04-22 12:02 | 44.07841 | 4.52553 | 25549 ft | 436 kts | 18° |
| 2026-04-22 12:02 | 44.10683 | 4.54062 | 25902 ft | 438 kts | 18° |
| 2026-04-22 12:02 | 44.13539 | 4.55572 | 26275 ft | 440 kts | 18° |
| 2026-04-22 12:03 | 44.16407 | 4.57087 | 26652 ft | 442 kts | 18° |
| 2026-04-22 12:03 | 44.19287 | 4.58612 | 27009 ft | 444 kts | 17° |
| 2026-04-22 12:03 | 44.22180 | 4.60149 | 27333 ft | 446 kts | 18° |
| 2026-04-22 12:03 | 44.25049 | 4.61675 | 27619 ft | 449 kts | 18° |
| 2026-04-22 12:04 | 44.27974 | 4.63234 | 27915 ft | 451 kts | 18° |
| 2026-04-22 12:04 | 44.30912 | 4.64803 | 28220 ft | 453 kts | 18° |
| 2026-04-22 12:04 | 44.33867 | 4.66383 | 28523 ft | 456 kts | 18° |
| 2026-04-22 12:04 | 44.36835 | 4.67971 | 28795 ft | 458 kts | 18° |
| 2026-04-22 12:05 | 44.39822 | 4.69571 | 29074 ft | 460 kts | 18° |
| 2026-04-22 12:05 | 44.42817 | 4.71178 | 29371 ft | 462 kts | 18° |
| 2026-04-22 12:05 | 44.45821 | 4.72791 | 29747 ft | 463 kts | 18° |
| 2026-04-22 12:05 | 44.48823 | 4.74404 | 30189 ft | 461 kts | 18° |
| 2026-04-22 12:06 | 44.51816 | 4.75973 | 30580 ft | 458 kts | 14° |
| 2026-04-22 12:06 | 44.54889 | 4.76973 | 30946 ft | 450 kts | 4° |
| 2026-04-22 12:06 | 44.57991 | 4.77278 | 31335 ft | 444 kts | 355° |
| 2026-04-22 12:06 | 44.61046 | 4.76940 | 31684 ft | 438 kts | 347° |
| 2026-04-22 12:07 | 44.64047 | 4.76260 | 32042 ft | 436 kts | 347° |
| 2026-04-22 12:07 | 44.67034 | 4.75555 | 32410 ft | 434 kts | 346° |
| 2026-04-22 12:07 | 44.70006 | 4.74855 | 32768 ft | 432 kts | 346° |
| 2026-04-22 12:07 | 44.72966 | 4.74170 | 33114 ft | 431 kts | 346° |
| 2026-04-22 12:08 | 44.75917 | 4.73499 | 33482 ft | 428 kts | 346° |
| 2026-04-22 12:08 | 44.78857 | 4.72839 | 33844 ft | 427 kts | 346° |
| 2026-04-22 12:08 | 44.81785 | 4.72187 | 34156 ft | 425 kts | 346° |
| 2026-04-22 12:08 | 44.84704 | 4.71537 | 34396 ft | 425 kts | 346° |
| 2026-04-22 12:09 | 44.87623 | 4.70888 | 34642 ft | 424 kts | 347° |
| 2026-04-22 12:09 | 44.90531 | 4.70241 | 34920 ft | 422 kts | 347° |
| 2026-04-22 12:09 | 44.93407 | 4.69600 | 35337 ft | 416 kts | 347° |
| 2026-04-22 12:09 | 44.96263 | 4.68963 | 35584 ft | 415 kts | 347° |
| 2026-04-22 12:10 | 44.99124 | 4.68322 | 35738 ft | 417 kts | 347° |
| 2026-04-22 12:10 | 45.01988 | 4.67679 | 35933 ft | 416 kts | 347° |
| 2026-04-22 12:10 | 45.04850 | 4.67037 | 36088 ft | 418 kts | 347° |
| 2026-04-22 12:10 | 45.07734 | 4.66389 | 36075 ft | 420 kts | 347° |
| 2026-04-22 12:11 | 45.13502 | 4.65094 | 36081 ft | 418 kts | 347° |
| 2026-04-22 12:11 | 45.19197 | 4.63814 | 36071 ft | 411 kts | 347° |
| 2026-04-22 12:12 | 45.24835 | 4.62527 | 36062 ft | 410 kts | 347° |
| 2026-04-22 12:12 | 45.30460 | 4.61236 | 36092 ft | 409 kts | 347° |
| 2026-04-22 12:13 | 45.36084 | 4.59943 | 36078 ft | 409 kts | 347° |
| 2026-04-22 12:13 | 45.41707 | 4.58649 | 36075 ft | 410 kts | 347° |
| 2026-04-22 12:14 | 45.47344 | 4.57349 | 36078 ft | 411 kts | 347° |
| 2026-04-22 12:14 | 45.52988 | 4.56045 | 36085 ft | 412 kts | 347° |
| 2026-04-22 12:15 | 45.58645 | 4.54736 | 36072 ft | 412 kts | 347° |
| 2026-04-22 12:15 | 45.64302 | 4.53424 | 36082 ft | 412 kts | 347° |
| 2026-04-22 12:16 | 45.69927 | 4.52116 | 36099 ft | 412 kts | 347° |
| 2026-04-22 12:16 | 45.75589 | 4.50799 | 36093 ft | 412 kts | 347° |
| 2026-04-22 12:17 | 45.81251 | 4.49482 | 36086 ft | 412 kts | 347° |
| 2026-04-22 12:17 | 45.86904 | 4.48164 | 36092 ft | 411 kts | 347° |
| 2026-04-22 12:18 | 45.92548 | 4.46845 | 36092 ft | 410 kts | 347° |
| 2026-04-22 12:18 | 45.98178 | 4.45528 | 36091 ft | 409 kts | 347° |
| 2026-04-22 12:19 | 46.02882 | 4.44423 | 36089 ft | 408 kts | 346° |
| 2026-04-22 12:19 | 46.08483 | 4.43106 | 36104 ft | 408 kts | 346° |
| 2026-04-22 12:20 | 46.14088 | 4.41785 | 36095 ft | 408 kts | 346° |
| 2026-04-22 12:20 | 46.19685 | 4.40464 | 36085 ft | 407 kts | 346° |
| 2026-04-22 12:21 | 46.25238 | 4.39150 | 36076 ft | 407 kts | 347° |
| 2026-04-22 12:21 | 46.30793 | 4.37680 | 36103 ft | 405 kts | 343° |
| 2026-04-22 12:22 | 46.36254 | 4.35766 | 36097 ft | 404 kts | 342° |
| 2026-04-22 12:22 | 46.41703 | 4.33792 | 36102 ft | 403 kts | 342° |
| 2026-04-22 12:23 | 46.47155 | 4.31849 | 36104 ft | 403 kts | 342° |
| 2026-04-22 12:23 | 46.52612 | 4.29924 | 36105 ft | 404 kts | 342° |
| 2026-04-22 12:24 | 46.58076 | 4.28000 | 36107 ft | 404 kts | 342° |
| 2026-04-22 12:24 | 46.63542 | 4.26072 | 36099 ft | 404 kts | 342° |
| 2026-04-22 12:25 | 46.69004 | 4.24142 | 36103 ft | 404 kts | 342° |
| 2026-04-22 12:25 | 46.74456 | 4.22210 | 36109 ft | 403 kts | 342° |
| 2026-04-22 12:26 | 46.79905 | 4.20275 | 36108 ft | 403 kts | 342° |
| 2026-04-22 12:26 | 46.85349 | 4.18338 | 36107 ft | 402 kts | 342° |
| 2026-04-22 12:27 | 46.90788 | 4.16399 | 36119 ft | 402 kts | 342° |
| 2026-04-22 12:27 | 46.96216 | 4.14459 | 36114 ft | 402 kts | 342° |
| 2026-04-22 12:28 | 47.01643 | 4.12516 | 36108 ft | 401 kts | 342° |
| 2026-04-22 12:28 | 47.07052 | 4.10521 | 36107 ft | 399 kts | 338° |
| 2026-04-22 12:29 | 47.12200 | 4.07598 | 36108 ft | 396 kts | 334° |
| 2026-04-22 12:29 | 47.17254 | 4.04516 | 36111 ft | 396 kts | 334° |
| 2026-04-22 12:30 | 47.24914 | 3.99913 | 36119 ft | 397 kts | 335° |
| 2026-04-22 12:31 | 47.30034 | 3.96861 | 36115 ft | 397 kts | 335° |
| 2026-04-22 12:31 | 47.35163 | 3.93801 | 36122 ft | 398 kts | 334° |
| 2026-04-22 12:32 | 47.40297 | 3.90732 | 36128 ft | 399 kts | 334° |
| 2026-04-22 12:32 | 47.48000 | 3.86114 | 36130 ft | 398 kts | 334° |
| 2026-04-22 12:33 | 47.53138 | 3.83026 | 36141 ft | 398 kts | 334° |
| 2026-04-22 12:33 | 47.58269 | 3.79940 | 36128 ft | 398 kts | 334° |
| 2026-04-22 12:34 | 47.63395 | 3.76868 | 36126 ft | 397 kts | 334° |
| 2026-04-22 12:34 | 47.68514 | 3.73795 | 36132 ft | 396 kts | 334° |
| 2026-04-22 12:35 | 47.73618 | 3.70723 | 36137 ft | 396 kts | 334° |
| 2026-04-22 12:35 | 47.78719 | 3.67644 | 36141 ft | 395 kts | 334° |
| 2026-04-22 12:36 | 47.83813 | 3.64564 | 36143 ft | 395 kts | 334° |
| 2026-04-22 12:36 | 47.88901 | 3.61480 | 36137 ft | 395 kts | 334° |
| 2026-04-22 12:37 | 47.93984 | 3.58394 | 36143 ft | 394 kts | 334° |
| 2026-04-22 12:37 | 47.99061 | 3.55298 | 36145 ft | 394 kts | 335° |
| 2026-04-22 12:38 | 48.04134 | 3.52180 | 36138 ft | 394 kts | 335° |
| 2026-04-22 12:38 | 48.09206 | 3.49054 | 36160 ft | 394 kts | 335° |
| 2026-04-22 12:39 | 48.16817 | 3.44352 | 36153 ft | 395 kts | 335° |
| 2026-04-22 12:40 | 48.21902 | 3.41203 | 36132 ft | 395 kts | 334° |
| 2026-04-22 12:40 | 48.26983 | 3.38049 | 36156 ft | 396 kts | 334° |
| 2026-04-22 12:41 | 48.32075 | 3.34882 | 36165 ft | 396 kts | 334° |
| 2026-04-22 12:41 | 48.37146 | 3.31722 | 36170 ft | 397 kts | 334° |
| 2026-04-22 12:42 | 48.42256 | 3.28523 | 36178 ft | 398 kts | 335° |
| 2026-04-22 12:42 | 48.47366 | 3.25272 | 36168 ft | 399 kts | 334° |
| 2026-04-22 12:43 | 48.52476 | 3.22005 | 36179 ft | 399 kts | 334° |
| 2026-04-22 12:43 | 48.57592 | 3.18730 | 36187 ft | 400 kts | 334° |
| 2026-04-22 12:44 | 48.62712 | 3.15448 | 36199 ft | 400 kts | 335° |
| 2026-04-22 12:44 | 48.67834 | 3.12158 | 36191 ft | 400 kts | 335° |
| 2026-04-22 12:45 | 48.72963 | 3.08856 | 36194 ft | 400 kts | 335° |
| 2026-04-22 12:45 | 48.78086 | 3.05551 | 36194 ft | 400 kts | 335° |
| 2026-04-22 12:46 | 48.83199 | 3.02245 | 36199 ft | 400 kts | 334° |
| 2026-04-22 12:46 | 48.88131 | 2.98423 | 36214 ft | 397 kts | 328° |
| 2026-04-22 12:47 | 48.92891 | 2.94175 | 36213 ft | 397 kts | 327° |
| 2026-04-22 12:47 | 48.97658 | 2.89919 | 36203 ft | 397 kts | 328° |
| 2026-04-22 12:48 | 49.02441 | 2.85689 | 36207 ft | 398 kts | 328° |
| 2026-04-22 12:48 | 49.07233 | 2.81462 | 36216 ft | 398 kts | 328° |
| 2026-04-22 12:49 | 49.12029 | 2.77229 | 36212 ft | 398 kts | 328° |
| 2026-04-22 12:49 | 49.16828 | 2.72983 | 36223 ft | 399 kts | 328° |
| 2026-04-22 12:50 | 49.21630 | 2.68725 | 36218 ft | 399 kts | 328° |
| 2026-04-22 12:50 | 49.26433 | 2.64456 | 36208 ft | 399 kts | 328° |
| 2026-04-22 12:51 | 49.31202 | 2.60206 | 36218 ft | 400 kts | 328° |
| 2026-04-22 12:51 | 49.36016 | 2.55907 | 36228 ft | 401 kts | 328° |
| 2026-04-22 12:52 | 49.40869 | 2.51563 | 36232 ft | 401 kts | 328° |
| 2026-04-22 12:52 | 49.45660 | 2.47265 | 36228 ft | 402 kts | 328° |
| 2026-04-22 12:53 | 49.50485 | 2.42912 | 36251 ft | 402 kts | 326° |
| 2026-04-22 12:53 | 49.54823 | 2.37518 | 36243 ft | 401 kts | 317° |
| 2026-04-22 12:54 | 49.58959 | 2.31734 | 36234 ft | 402 kts | 317° |
| 2026-04-22 12:54 | 49.63106 | 2.25961 | 36233 ft | 402 kts | 317° |
| 2026-04-22 12:55 | 49.66557 | 2.21172 | 36227 ft | 401 kts | 317° |
| 2026-04-22 12:55 | 49.71415 | 2.14423 | 36229 ft | 402 kts | 317° |
| 2026-04-22 12:56 | 49.75569 | 2.08639 | 36227 ft | 402 kts | 317° |
| 2026-04-22 12:56 | 49.79723 | 2.02840 | 36232 ft | 402 kts | 317° |
| 2026-04-22 12:57 | 49.83878 | 1.97028 | 36224 ft | 403 kts | 317° |
| 2026-04-22 12:57 | 49.87695 | 1.90720 | 36237 ft | 402 kts | 306° |
| 2026-04-22 12:58 | 49.90315 | 1.83053 | 36240 ft | 404 kts | 294° |
| 2026-04-22 12:58 | 49.92413 | 1.74964 | 36226 ft | 404 kts | 294° |
| 2026-04-22 12:59 | 49.94528 | 1.66885 | 36232 ft | 404 kts | 294° |
| 2026-04-22 12:59 | 49.96659 | 1.58808 | 36244 ft | 405 kts | 294° |
| 2026-04-22 13:00 | 49.99421 | 1.51247 | 36243 ft | 403 kts | 308° |
| 2026-04-22 13:00 | 50.03341 | 1.45055 | 36254 ft | 403 kts | 318° |
| 2026-04-22 13:01 | 50.07591 | 1.39356 | 36247 ft | 403 kts | 319° |
| 2026-04-22 13:01 | 50.11809 | 1.33674 | 36241 ft | 403 kts | 318° |
| 2026-04-22 13:02 | 50.16036 | 1.27918 | 36245 ft | 401 kts | 318° |
| 2026-04-22 13:02 | 50.20145 | 1.22292 | 35920 ft | 386 kts | 318° |
| 2026-04-22 13:02 | 50.22144 | 1.19549 | 35588 ft | 381 kts | 317° |
| 2026-04-22 13:03 | 50.24121 | 1.16831 | 35268 ft | 376 kts | 317° |
| 2026-04-22 13:03 | 50.26078 | 1.14138 | 34891 ft | 374 kts | 317° |
| 2026-04-22 13:03 | 50.28020 | 1.11463 | 34538 ft | 371 kts | 317° |
| 2026-04-22 13:03 | 50.29947 | 1.08807 | 34172 ft | 368 kts | 317° |
| 2026-04-22 13:04 | 50.31859 | 1.06167 | 33758 ft | 365 kts | 317° |
| 2026-04-22 13:04 | 50.33753 | 1.03549 | 33397 ft | 361 kts | 318° |
| 2026-04-22 13:04 | 50.35628 | 1.00955 | 33038 ft | 358 kts | 318° |
| 2026-04-22 13:04 | 50.37483 | 0.98385 | 32701 ft | 354 kts | 318° |
| 2026-04-22 13:05 | 50.39323 | 0.95835 | 32338 ft | 352 kts | 318° |
| 2026-04-22 13:05 | 50.41145 | 0.93307 | 31998 ft | 348 kts | 318° |
| 2026-04-22 13:05 | 50.42951 | 0.90798 | 31641 ft | 346 kts | 318° |
| 2026-04-22 13:05 | 50.44746 | 0.88304 | 31313 ft | 343 kts | 319° |
| 2026-04-22 13:06 | 50.46545 | 0.85878 | 31008 ft | 340 kts | 319° |
| 2026-04-22 13:06 | 50.47739 | 0.84295 | 30784 ft | 338 kts | 320° |
| 2026-04-22 13:06 | 50.49533 | 0.81922 | 30459 ft | 336 kts | 320° |
| 2026-04-22 13:06 | 50.51311 | 0.79561 | 30098 ft | 334 kts | 320° |
| 2026-04-22 13:07 | 50.53074 | 0.77210 | 29737 ft | 331 kts | 320° |
| 2026-04-22 13:07 | 50.54815 | 0.74884 | 29401 ft | 327 kts | 320° |
| 2026-04-22 13:07 | 50.56541 | 0.72585 | 29073 ft | 323 kts | 320° |
| 2026-04-22 13:07 | 50.58251 | 0.70309 | 28717 ft | 321 kts | 320° |
| 2026-04-22 13:08 | 50.59943 | 0.68054 | 28384 ft | 317 kts | 320° |
| 2026-04-22 13:08 | 50.61623 | 0.65814 | 28040 ft | 316 kts | 320° |
| 2026-04-22 13:08 | 50.63286 | 0.63594 | 27750 ft | 312 kts | 320° |
| 2026-04-22 13:08 | 50.64940 | 0.61384 | 27419 ft | 311 kts | 321° |
| 2026-04-22 13:09 | 50.66585 | 0.59183 | 27097 ft | 310 kts | 321° |
| 2026-04-22 13:09 | 50.68239 | 0.56968 | 26785 ft | 316 kts | 321° |
| 2026-04-22 13:09 | 50.69940 | 0.54689 | 26467 ft | 325 kts | 321° |
| 2026-04-22 13:09 | 50.71672 | 0.52364 | 26116 ft | 327 kts | 321° |
| 2026-04-22 13:10 | 50.73398 | 0.50044 | 25775 ft | 325 kts | 321° |
| 2026-04-22 13:10 | 50.75112 | 0.47740 | 25438 ft | 323 kts | 321° |
| 2026-04-22 13:10 | 50.76816 | 0.45448 | 25085 ft | 321 kts | 321° |
| 2026-04-22 13:10 | 50.78509 | 0.43167 | 24764 ft | 319 kts | 320° |
| 2026-04-22 13:11 | 50.80191 | 0.40896 | 24460 ft | 317 kts | 321° |
| 2026-04-22 13:11 | 50.81862 | 0.38637 | 24147 ft | 315 kts | 321° |
| 2026-04-22 13:11 | 50.83526 | 0.36384 | 23838 ft | 314 kts | 321° |
| 2026-04-22 13:11 | 50.85162 | 0.34167 | 23487 ft | 313 kts | 321° |
| 2026-04-22 13:12 | 50.86807 | 0.31936 | 23185 ft | 310 kts | 321° |
| 2026-04-22 13:12 | 50.88439 | 0.29721 | 22866 ft | 308 kts | 321° |
| 2026-04-22 13:12 | 50.90057 | 0.27521 | 22583 ft | 305 kts | 322° |
| 2026-04-22 13:12 | 50.91657 | 0.25343 | 22311 ft | 302 kts | 322° |
| 2026-04-22 13:13 | 50.93249 | 0.23177 | 22004 ft | 301 kts | 321° |
| 2026-04-22 13:13 | 50.94836 | 0.21014 | 21700 ft | 301 kts | 322° |
| 2026-04-22 13:13 | 50.96424 | 0.18851 | 21398 ft | 302 kts | 321° |
| 2026-04-22 13:13 | 50.98026 | 0.16666 | 21097 ft | 306 kts | 321° |
| 2026-04-22 13:14 | 50.99667 | 0.14424 | 20804 ft | 317 kts | 321° |
| 2026-04-22 13:14 | 51.01367 | 0.12104 | 20480 ft | 324 kts | 322° |
| 2026-04-22 13:14 | 51.03151 | 0.09895 | 20073 ft | 326 kts | 326° |
| 2026-04-22 13:14 | 51.05011 | 0.07823 | 19687 ft | 327 kts | 328° |
| 2026-04-22 13:15 | 51.06891 | 0.05784 | 19296 ft | 329 kts | 328° |
| 2026-04-22 13:15 | 51.08785 | 0.03731 | 18903 ft | 331 kts | 327° |
| 2026-04-22 13:15 | 51.10687 | 0.01659 | 18470 ft | 333 kts | 327° |
| 2026-04-22 13:15 | 51.12597 | -0.00436 | 17930 ft | 334 kts | 327° |
| 2026-04-22 13:16 | 51.14510 | -0.02543 | 17514 ft | 335 kts | 327° |
| 2026-04-22 13:16 | 51.16424 | -0.04663 | 17092 ft | 335 kts | 326° |
| 2026-04-22 13:16 | 51.18340 | -0.06790 | 16670 ft | 336 kts | 327° |
| 2026-04-22 13:16 | 51.20258 | -0.08920 | 16286 ft | 336 kts | 327° |
| 2026-04-22 13:17 | 51.22179 | -0.11060 | 15884 ft | 337 kts | 327° |
| 2026-04-22 13:17 | 51.24103 | -0.13206 | 15483 ft | 338 kts | 326° |
| 2026-04-22 13:17 | 51.26036 | -0.15364 | 15085 ft | 339 kts | 326° |
| 2026-04-22 13:17 | 51.27973 | -0.17526 | 14673 ft | 341 kts | 327° |
| 2026-04-22 13:18 | 51.29919 | -0.19702 | 14281 ft | 342 kts | 327° |
| 2026-04-22 13:18 | 51.31874 | -0.21891 | 13824 ft | 345 kts | 327° |
| 2026-04-22 13:18 | 51.33842 | -0.24097 | 13398 ft | 346 kts | 326° |
| 2026-04-22 13:18 | 51.35812 | -0.26308 | 12969 ft | 346 kts | 327° |
| 2026-04-22 13:19 | 51.37782 | -0.28520 | 12547 ft | 346 kts | 326° |
| 2026-04-22 13:19 | 51.39755 | -0.30739 | 12134 ft | 346 kts | 326° |
| 2026-04-22 13:19 | 51.41726 | -0.32957 | 11716 ft | 346 kts | 326° |
| 2026-04-22 13:19 | 51.43704 | -0.35158 | 11312 ft | 346 kts | 329° |
| 2026-04-22 13:20 | 51.45801 | -0.37031 | 10894 ft | 345 kts | 336° |
| 2026-04-22 13:20 | 51.47964 | -0.38688 | 10492 ft | 344 kts | 337° |
| 2026-04-22 13:20 | 51.50106 | -0.40274 | 10211 ft | 340 kts | 337° |
| 2026-04-22 13:20 | 51.52204 | -0.41839 | 10224 ft | 326 kts | 338° |
| 2026-04-22 13:21 | 51.54225 | -0.43371 | 10127 ft | 317 kts | 337° |
| 2026-04-22 13:21 | 51.56184 | -0.44875 | 10026 ft | 308 kts | 337° |
| 2026-04-22 13:21 | 51.58086 | -0.46349 | 9873 ft | 301 kts | 336° |
| 2026-04-22 13:21 | 51.59963 | -0.47810 | 9587 ft | 300 kts | 336° |
| 2026-04-22 13:22 | 51.61834 | -0.49270 | 9315 ft | 298 kts | 336° |
| 2026-04-22 13:22 | 51.63683 | -0.50721 | 9044 ft | 296 kts | 337° |
| 2026-04-22 13:22 | 51.65522 | -0.52164 | 8806 ft | 290 kts | 337° |
| 2026-04-22 13:22 | 51.67341 | -0.53595 | 8285 ft | 292 kts | 337° |
| 2026-04-22 13:23 | 51.69161 | -0.55025 | 7906 ft | 288 kts | 337° |
| 2026-04-22 13:23 | 51.70957 | -0.56439 | 7619 ft | 286 kts | 337° |
| 2026-04-22 13:23 | 51.72741 | -0.57847 | 7202 ft | 285 kts | 337° |
| 2026-04-22 13:23 | 51.74517 | -0.59250 | 6724 ft | 284 kts | 337° |
| 2026-04-22 13:24 | 51.76282 | -0.60640 | 6333 ft | 280 kts | 338° |
| 2026-04-22 13:24 | 51.78018 | -0.62016 | 6036 ft | 274 kts | 338° |
| 2026-04-22 13:24 | 51.79685 | -0.63337 | 5842 ft | 257 kts | 340° |
| 2026-04-22 13:24 | 51.81292 | -0.63896 | 5682 ft | 219 kts | 16° |
| 2026-04-22 13:25 | 51.82480 | -0.62896 | 5506 ft | 176 kts | 61° |
| 2026-04-22 13:25 | 51.82989 | -0.61254 | 5284 ft | 159 kts | 72° |
| 2026-04-22 13:25 | 51.83417 | -0.59613 | 4784 ft | 158 kts | 72° |
| 2026-04-22 13:25 | 51.83801 | -0.57983 | 4277 ft | 156 kts | 75° |
| 2026-04-22 13:26 | 51.84121 | -0.56298 | 3795 ft | 152 kts | 76° |
| 2026-04-22 13:26 | 51.84408 | -0.54659 | 3204 ft | 151 kts | 76° |
| 2026-04-22 13:26 | 51.84687 | -0.53028 | 2681 ft | 151 kts | 76° |
| 2026-04-22 13:26 | 51.84967 | -0.51382 | 2222 ft | 147 kts | 75° |
| 2026-04-22 13:27 | 51.85226 | -0.49870 | 2040 ft | 133 kts | 76° |
| 2026-04-22 13:27 | 51.85468 | -0.48452 | 1851 ft | 132 kts | 76° |
| 2026-04-22 13:27 | 51.85715 | -0.47014 | 1676 ft | 129 kts | 77° |
| 2026-04-22 13:27 | 51.85955 | -0.45595 | 1472 ft | 134 kts | 77° |
| 2026-04-22 13:28 | 51.86208 | -0.44138 | 1295 ft | 138 kts | 77° |
| 2026-04-22 13:28 | 51.86463 | -0.42633 | 1108 ft | 138 kts | 77° |
| 2026-04-22 13:28 | 51.86709 | -0.41138 | 944 ft | 139 kts | 73° |
| 2026-04-22 13:28 | 51.86996 | -0.39631 | 737 ft | 139 kts | 78° |
| 2026-04-22 13:29 | 51.87244 | -0.38142 | 545 ft | 134 kts | 77° |
| 2026-04-22 13:29 | 51.87463 | -0.36848 | 534 ft | 100 kts | 74° |
| 2026-04-22 13:29 | 51.87595 | -0.36083 | 529 ft | 34 kts | 75° |
| 2026-04-22 13:29 | 51.87636 | -0.35922 | 529 ft | 6 kts | 34° |
| 2026-04-22 13:30 | 51.87678 | -0.35919 | 530 ft | 6 kts | 346° |
| 2026-04-22 13:30 | 51.87724 | -0.35940 | 530 ft | 8 kts | 344° |
| 2026-04-22 13:30 | 51.87780 | -0.36001 | 530 ft | 11 kts | 299° |
| 2026-04-22 13:30 | 51.87775 | -0.36133 | 531 ft | 14 kts | 254° |
| 2026-04-22 13:31 | 51.87743 | -0.36315 | 531 ft | 19 kts | 254° |
| 2026-04-22 13:31 | 51.87706 | -0.36531 | 532 ft | 21 kts | 254° |
| 2026-04-22 13:31 | 51.87676 | -0.36708 | 533 ft | 8 kts | 254° |
| 2026-04-22 13:31 | 51.87666 | -0.36765 | 533 ft | 6 kts | 254° |
| 2026-04-22 13:32 | 51.87649 | -0.36860 | 533 ft | 11 kts | 254° |
| 2026-04-22 13:32 | 51.87684 | -0.36950 | 533 ft | 12 kts | 336° |
| 2026-04-22 13:32 | 51.87778 | -0.37000 | 533 ft | 17 kts | 342° |
| 2026-04-22 13:32 | 51.87899 | -0.37064 | 533 ft | 20 kts | 342° |
| 2026-04-22 13:33 | 51.88007 | -0.37121 | 533 ft | 9 kts | 341° |
| 2026-04-22 13:33 | 51.88075 | -0.37157 | 533 ft | 13 kts | 341° |
| 2026-04-22 13:33 | 51.88166 | -0.37205 | 533 ft | 15 kts | 342° |
| 2026-04-22 13:33 | 51.88235 | -0.37242 | 533 ft | 10 kts | 342° |
| 2026-04-22 13:34 | 51.88264 | -0.37334 | 533 ft | 10 kts | 259° |
| 2026-04-22 13:34 | 51.88247 | -0.37427 | 534 ft | 10 kts | 252° |
| 2026-04-22 13:34 | 51.88222 | -0.37548 | 534 ft | 10 kts | 250° |
| 2026-04-22 13:34 | 51.88182 | -0.37662 | 534 ft | 12 kts | 239° |
| 2026-04-22 13:35 | 51.88137 | -0.37775 | 535 ft | 11 kts | 231° |
| 2026-04-22 13:35 | 51.88100 | -0.37826 | 535 ft | 4 kts | 193° |
| 2026-04-22 13:35 | 51.88082 | -0.37825 | 535 ft | 4 kts | 172° |
| 2026-04-22 13:35 | 51.88065 | -0.37804 | 535 ft | 1 kts | 130° |
| 2026-04-22 13:36 | 51.88060 | -0.37794 | 535 ft | 1 kts | 129° |
| 2026-04-22 13:36 | 51.88056 | -0.37786 | 535 ft | 0 kts | 128° |